createdAt,value
2022-10-22T00:00:16.366Z,97.97
2022-10-22T00:02:46.787Z,98.11
2022-10-22T00:05:17.324Z,98.11
2022-10-22T00:07:47.815Z,98.21
2022-10-22T00:10:19.061Z,98.31
2022-10-22T00:12:52.497Z,98.34
2022-10-22T00:15:23.287Z,98.37
2022-10-22T00:17:54.321Z,98.50
2022-10-22T00:20:25.382Z,98.47
2022-10-22T00:22:56.154Z,98.53
2022-10-22T00:25:26.611Z,98.62
2022-10-22T00:27:56.924Z,98.82
2022-10-22T00:30:27.346Z,98.85
2022-10-22T00:32:57.747Z,98.97
2022-10-22T00:35:28.522Z,98.97
2022-10-22T00:37:59.204Z,98.98
2022-10-22T00:40:29.584Z,98.95
2022-10-22T00:42:59.953Z,98.96
2022-10-22T00:45:30.890Z,98.95
2022-10-22T00:48:04.600Z,98.96
2022-10-22T00:50:39.066Z,98.76
2022-10-22T00:53:14.438Z,98.46
2022-10-22T00:55:47.408Z,98.26
2022-10-22T00:58:21.234Z,98.10
2022-10-22T01:00:51.848Z,97.98
2022-10-22T01:03:22.602Z,97.65
2022-10-22T01:05:57.825Z,97.60
2022-10-22T01:08:37.823Z,97.73
2022-10-22T01:11:19.215Z,97.95
2022-10-22T01:13:58.305Z,98.15
2022-10-22T01:16:38.381Z,98.25
2022-10-22T01:19:30.167Z,98.26
2022-10-22T01:22:06.356Z,97.83
2022-10-22T01:24:50.636Z,97.69
2022-10-22T01:27:31.387Z,97.56
2022-10-22T01:30:05.703Z,97.34
2022-10-22T01:32:42.452Z,97.38
2022-10-22T01:35:16.859Z,97.47
2022-10-22T01:37:50.952Z,97.59
2022-10-22T01:40:22.845Z,97.85
2022-10-22T01:43:04.468Z,98.01
2022-10-22T01:45:39.190Z,98.23
2022-10-22T01:48:21.939Z,98.30
2022-10-22T01:51:07.677Z,98.45
2022-10-22T01:53:49.978Z,98.30
2022-10-22T01:56:42.698Z,97.64
2022-10-22T01:59:23.400Z,97.32
2022-10-22T02:02:00.840Z,97.11
2022-10-22T02:04:35.117Z,97.23
2022-10-22T02:07:10.163Z,97.26
2022-10-22T02:09:42.993Z,97.40
2022-10-22T02:12:14.642Z,97.46
2022-10-22T02:14:48.353Z,97.49
2022-10-22T02:17:22.814Z,97.40
2022-10-22T02:19:58.160Z,97.33
2022-10-22T02:22:29.737Z,97.18
2022-10-22T02:25:00.211Z,97.10
2022-10-22T02:27:34.254Z,96.98
2022-10-22T02:30:10.097Z,96.91
2022-10-22T02:32:44.637Z,96.88
2022-10-22T02:35:20.350Z,97.20
2022-10-22T02:37:53.264Z,97.27
2022-10-22T02:40:24.907Z,97.26
2022-10-22T02:42:56.202Z,97.41
2022-10-22T02:45:27.369Z,97.52
2022-10-22T02:47:58.445Z,97.53
2022-10-22T02:50:29.864Z,97.27
2022-10-22T02:53:00.528Z,96.96
2022-10-22T02:55:31.722Z,96.71
2022-10-22T02:58:02.393Z,96.51
2022-10-22T03:00:32.915Z,96.44
2022-10-22T03:03:03.403Z,96.20
2022-10-22T03:05:34.389Z,96.16
2022-10-22T03:08:04.928Z,96.05
2022-10-22T03:10:35.589Z,96.08
2022-10-22T03:13:06.631Z,96.29
2022-10-22T03:15:37.581Z,96.19
2022-10-22T03:18:08.166Z,96.21
2022-10-22T03:20:39.319Z,96.26
2022-10-22T03:23:10.275Z,96.20
2022-10-22T03:25:43.442Z,96.10
2022-10-22T03:28:18.005Z,96.13
2022-10-22T03:30:49.005Z,96.25
2022-10-22T03:33:20.214Z,96.37
2022-10-22T03:35:51.242Z,96.43
2022-10-22T03:38:21.766Z,96.47
2022-10-22T03:40:52.884Z,96.61
2022-10-22T03:43:23.371Z,96.77
2022-10-22T03:45:54.297Z,96.86
2022-10-22T03:48:25.104Z,96.86
2022-10-22T03:50:55.445Z,96.80
2022-10-22T03:53:26.029Z,96.87
2022-10-22T03:55:56.392Z,96.98
2022-10-22T03:58:27.111Z,97.08
2022-10-22T04:00:57.966Z,97.22
2022-10-22T04:03:28.783Z,97.39
2022-10-22T04:06:04.134Z,97.44
2022-10-22T04:08:34.799Z,97.41
2022-10-22T04:11:06.073Z,97.33
2022-10-22T04:13:36.731Z,97.21
2022-10-22T04:16:11.913Z,97.15
2022-10-22T04:18:42.681Z,97.15
2022-10-22T04:21:15.344Z,97.12
2022-10-22T04:23:49.621Z,97.07
2022-10-22T04:26:21.353Z,96.93
2022-10-22T04:28:52.895Z,96.95
2022-10-22T04:31:25.551Z,96.88
2022-10-22T04:33:58.016Z,97.02
2022-10-22T04:36:29.502Z,97.29
2022-10-22T04:39:01.569Z,97.63
2022-10-22T04:41:33.823Z,97.83
2022-10-22T04:44:05.841Z,97.78
2022-10-22T04:46:37.418Z,97.77
2022-10-22T04:49:08.198Z,97.81
2022-10-22T04:51:38.549Z,97.77
2022-10-22T04:54:08.897Z,97.65
2022-10-22T04:56:39.586Z,97.61
2022-10-22T04:59:12.597Z,97.48
2022-10-22T05:01:45.178Z,97.44
2022-10-22T05:04:18.012Z,97.40
2022-10-22T05:06:49.893Z,97.26
2022-10-22T05:09:21.802Z,97.17
2022-10-22T05:11:53.938Z,97.18
2022-10-22T05:14:26.161Z,97.12
2022-10-22T05:16:57.332Z,97.10
2022-10-22T05:19:30.798Z,97.05
2022-10-22T05:22:03.105Z,97.15
2022-10-22T05:24:37.113Z,97.02
2022-10-22T05:27:08.012Z,96.84
2022-10-22T05:29:38.626Z,96.54
2022-10-22T05:32:09.084Z,96.44
2022-10-22T05:34:39.734Z,96.25
2022-10-22T05:37:10.505Z,96.39
2022-10-22T05:39:41.708Z,96.73
2022-10-22T05:42:12.324Z,96.86
2022-10-22T05:44:42.984Z,97.06
2022-10-22T05:47:14.253Z,97.26
2022-10-22T05:49:44.927Z,97.42
2022-10-22T05:52:15.892Z,97.64
2022-10-22T05:54:46.924Z,97.92
2022-10-22T05:57:17.581Z,98.13
2022-10-22T05:59:48.518Z,98.36
2022-10-22T06:02:19.523Z,98.66
2022-10-22T06:04:50.147Z,98.88
2022-10-22T06:07:20.847Z,98.96
2022-10-22T06:09:51.346Z,98.93
2022-10-22T06:12:21.893Z,99.05
2022-10-22T06:14:52.246Z,99.04
2022-10-22T06:17:22.657Z,99.36
2022-10-22T06:19:53.701Z,99.62
2022-10-22T06:22:24.089Z,99.74
2022-10-22T06:24:54.658Z,99.68
2022-10-22T06:27:26.049Z,99.65
2022-10-22T06:29:57.018Z,99.68
2022-10-22T06:32:27.745Z,99.72
2022-10-22T06:34:58.869Z,99.82
2022-10-22T06:37:29.247Z,99.86
2022-10-22T06:39:59.964Z,99.80
2022-10-22T06:42:32.009Z,99.78
2022-10-22T06:45:03.261Z,99.95
2022-10-22T06:47:34.352Z,99.92
2022-10-22T06:50:05.337Z,99.95
2022-10-22T06:52:36.089Z,99.98
2022-10-22T06:55:07.566Z,99.96
2022-10-22T06:57:38.505Z,100.00
2022-10-22T07:00:11.563Z,100.00
2022-10-22T07:02:42.419Z,100.00
2022-10-22T07:05:13.360Z,100.00
2022-10-22T07:07:44.076Z,100.00
2022-10-22T07:10:14.813Z,100.00
2022-10-22T07:12:45.243Z,100.00
2022-10-22T07:15:15.928Z,100.00
2022-10-22T07:17:46.565Z,100.00
2022-10-22T07:20:18.816Z,100.00
2022-10-22T07:22:49.608Z,100.00
2022-10-22T07:25:20.526Z,100.00
2022-10-22T07:27:52.506Z,100.00
2022-10-22T07:30:23.727Z,100.00
2022-10-22T07:32:54.833Z,100.00
2022-10-22T07:35:25.512Z,100.00
2022-10-22T07:37:56.941Z,100.00
2022-10-22T07:40:27.714Z,100.00
2022-10-22T07:42:58.102Z,100.00
2022-10-22T07:45:29.103Z,100.00
2022-10-22T07:48:00.586Z,100.00
2022-10-22T07:50:31.176Z,100.00
2022-10-22T07:53:01.977Z,100.00
2022-10-22T07:55:32.726Z,100.00
2022-10-22T07:58:03.390Z,100.00
2022-10-22T08:00:33.921Z,100.00
2022-10-22T08:03:04.665Z,100.00
2022-10-22T08:05:35.660Z,100.00
2022-10-22T08:08:06.568Z,100.00
2022-10-22T08:10:37.510Z,100.00
2022-10-22T08:13:08.658Z,100.00
2022-10-22T08:15:40.145Z,100.00
2022-10-22T08:18:10.898Z,100.00
2022-10-22T08:20:42.629Z,100.00
2022-10-22T08:23:13.019Z,100.00
2022-10-22T08:25:43.442Z,100.00
2022-10-22T08:28:17.427Z,100.00
2022-10-22T08:30:50.563Z,100.00
2022-10-22T08:33:28.155Z,100.00
2022-10-22T08:35:58.806Z,100.00
2022-10-22T08:38:31.307Z,100.00
2022-10-22T08:41:09.781Z,100.00
2022-10-22T08:44:02.256Z,100.00
2022-10-22T08:46:46.619Z,100.00
2022-10-22T08:49:21.236Z,100.00
2022-10-22T08:51:52.654Z,100.00
2022-10-22T08:54:34.766Z,100.00
2022-10-22T08:57:21.059Z,100.00
2022-10-22T09:00:03.190Z,100.00
2022-10-22T09:02:43.461Z,100.00
2022-10-22T09:05:34.010Z,100.00
2022-10-22T09:08:05.900Z,100.00
2022-10-22T09:10:41.341Z,100.00
2022-10-22T09:13:17.145Z,100.00
2022-10-22T09:15:50.442Z,100.00
2022-10-22T09:18:34.248Z,100.00
2022-10-22T09:21:14.686Z,100.00
2022-10-22T09:23:57.301Z,100.00
2022-10-22T09:26:28.974Z,100.00
2022-10-22T09:29:02.490Z,100.00
2022-10-22T09:31:35.209Z,100.00
2022-10-22T09:34:07.839Z,100.00
2022-10-22T09:36:40.368Z,100.00
2022-10-22T09:39:25.957Z,100.00
2022-10-22T09:41:56.473Z,100.00
2022-10-22T09:44:27.213Z,100.00
2022-10-22T09:46:57.980Z,100.00
2022-10-22T09:49:34.569Z,100.00
2022-10-22T09:52:22.517Z,100.00
2022-10-22T09:54:55.072Z,100.00
2022-10-22T09:57:29.581Z,100.00
2022-10-22T10:00:00.241Z,100.00
2022-10-22T10:02:38.594Z,100.00
2022-10-22T10:05:19.581Z,100.00
2022-10-22T10:07:50.077Z,100.00
2022-10-22T10:10:26.656Z,100.00
2022-10-22T10:13:02.531Z,100.00
2022-10-22T10:15:39.304Z,100.00
2022-10-22T10:18:23.601Z,100.00
2022-10-22T10:21:01.261Z,100.00
2022-10-22T10:23:35.048Z,100.00
2022-10-22T10:26:10.922Z,100.00
2022-10-22T10:29:06.810Z,100.00
2022-10-22T10:31:46.927Z,99.96
2022-10-22T10:34:29.616Z,99.72
2022-10-22T10:37:14.079Z,99.64
2022-10-22T10:40:04.381Z,99.37
2022-10-22T10:42:38.865Z,99.04
2022-10-22T10:45:21.821Z,99.15
2022-10-22T10:48:16.293Z,99.26
2022-10-22T10:50:57.994Z,99.27
2022-10-22T10:53:40.921Z,99.10
2022-10-22T10:56:26.499Z,98.74
2022-10-22T10:59:04.191Z,98.28
2022-10-22T11:01:39.477Z,98.07
2022-10-22T11:04:46.518Z,97.88
2022-10-22T11:07:34.271Z,97.62
2022-10-22T11:10:16.262Z,97.46
2022-10-22T11:12:51.488Z,97.41
2022-10-22T11:15:29.275Z,97.38
2022-10-22T11:18:07.397Z,97.14
2022-10-22T11:20:49.918Z,96.75
2022-10-22T11:23:29.468Z,96.79
2022-10-22T11:26:01.601Z,96.59
2022-10-22T11:28:38.810Z,96.48
2022-10-22T11:31:15.677Z,96.42
2022-10-22T11:34:00.454Z,96.71
2022-10-22T11:36:42.738Z,96.65
2022-10-22T11:39:33.088Z,96.49
2022-10-22T11:42:07.094Z,96.17
2022-10-22T11:44:59.731Z,95.64
2022-10-22T11:47:33.622Z,94.90
2022-10-22T11:50:20.315Z,94.67
2022-10-22T11:53:01.198Z,94.54
2022-10-22T11:55:46.020Z,94.64
2022-10-22T11:58:35.873Z,94.48
2022-10-22T12:01:40.886Z,93.69
2022-10-22T12:04:40.830Z,92.94
2022-10-22T12:07:35.708Z,92.59
2022-10-22T12:10:20.154Z,92.41
2022-10-22T12:12:56.933Z,92.30
2022-10-22T12:15:30.499Z,92.08
2022-10-22T12:18:06.411Z,91.84
2022-10-22T12:20:37.430Z,91.65
2022-10-22T12:23:10.609Z,91.65
2022-10-22T12:25:41.268Z,91.65
2022-10-22T12:28:16.044Z,91.01
2022-10-22T12:30:46.751Z,90.44
2022-10-22T12:33:23.069Z,90.10
2022-10-22T12:35:57.610Z,90.04
2022-10-22T12:38:28.217Z,90.10
2022-10-22T12:41:00.056Z,89.89
2022-10-22T12:43:33.466Z,89.62
2022-10-22T12:46:04.114Z,89.28
2022-10-22T12:48:39.724Z,89.28
2022-10-22T12:51:15.281Z,89.29
2022-10-22T12:53:49.443Z,89.43
2022-10-22T12:56:24.880Z,89.41
2022-10-22T12:58:59.336Z,89.31
2022-10-22T13:01:33.420Z,88.97
2022-10-22T13:04:21.949Z,88.69
2022-10-22T13:06:54.496Z,88.18
2022-10-22T13:09:27.660Z,87.94
2022-10-22T13:12:05.311Z,87.47
2022-10-22T13:14:38.599Z,86.94
2022-10-22T13:17:13.426Z,86.29
2022-10-22T13:19:47.137Z,85.77
2022-10-22T13:22:32.932Z,84.69
2022-10-22T13:25:23.449Z,83.55
2022-10-22T13:27:56.630Z,83.02
2022-10-22T13:30:28.818Z,82.75
2022-10-22T13:33:01.080Z,82.57
2022-10-22T13:35:33.729Z,82.58
2022-10-22T13:38:04.924Z,82.61
2022-10-22T13:40:35.797Z,82.66
2022-10-22T13:43:07.087Z,82.44
2022-10-22T13:45:38.084Z,82.68
2022-10-22T13:48:13.803Z,82.64
2022-10-22T13:50:45.081Z,82.69
2022-10-22T13:53:19.904Z,82.53
2022-10-22T13:55:50.985Z,82.64
2022-10-22T13:58:24.472Z,82.87
2022-10-22T14:00:57.517Z,83.17
2022-10-22T14:03:31.592Z,83.46
2022-10-22T14:06:02.543Z,83.54
2022-10-22T14:08:34.600Z,83.10
2022-10-22T14:11:05.418Z,83.06
2022-10-22T14:13:36.142Z,83.10
2022-10-22T14:16:08.864Z,83.15
2022-10-22T14:18:39.373Z,83.06
2022-10-22T14:21:12.092Z,82.95
2022-10-22T14:23:44.162Z,82.79
2022-10-22T14:26:23.663Z,82.82
2022-10-22T14:29:11.003Z,82.80
2022-10-22T14:31:44.762Z,82.86
2022-10-22T14:34:17.009Z,82.74
2022-10-22T14:36:47.590Z,81.51
2022-10-22T14:39:18.588Z,81.43
2022-10-22T14:41:49.696Z,80.75
2022-10-22T14:44:20.626Z,80.42
2022-10-22T14:46:54.368Z,80.32
2022-10-22T14:49:24.931Z,80.92
2022-10-22T14:51:55.937Z,82.21
2022-10-22T14:54:26.447Z,83.47
2022-10-22T14:56:57.019Z,84.31
2022-10-22T14:59:27.792Z,85.13
2022-10-22T15:01:58.481Z,85.57
2022-10-22T15:04:30.563Z,85.89
2022-10-22T15:07:01.321Z,85.80
2022-10-22T15:09:32.075Z,85.73
2022-10-22T15:12:03.012Z,85.68
2022-10-22T15:14:33.566Z,85.42
2022-10-22T15:17:04.471Z,85.20
2022-10-22T15:19:35.410Z,85.11
2022-10-22T15:22:06.971Z,85.14
2022-10-22T15:24:38.092Z,85.23
2022-10-22T15:27:09.156Z,85.30
2022-10-22T15:29:40.750Z,85.45
2022-10-22T15:32:11.748Z,85.34
2022-10-22T15:34:43.361Z,85.39
2022-10-22T15:37:15.310Z,85.31
2022-10-22T15:39:46.078Z,85.30
2022-10-22T15:42:16.570Z,85.43
2022-10-22T15:44:48.198Z,85.57
2022-10-22T15:47:19.076Z,85.62
2022-10-22T15:49:49.755Z,85.81
2022-10-22T15:52:21.594Z,85.85
2022-10-22T15:54:52.259Z,85.99
2022-10-22T15:57:23.062Z,86.13
2022-10-22T15:59:53.844Z,86.06
2022-10-22T16:02:25.083Z,86.17
2022-10-22T16:04:56.451Z,86.28
2022-10-22T16:07:27.400Z,86.36
2022-10-22T16:10:00.198Z,86.57
2022-10-22T16:12:30.814Z,86.65
2022-10-22T16:15:01.634Z,86.78
2022-10-22T16:17:32.636Z,87.02
2022-10-22T16:20:04.006Z,87.01
2022-10-22T16:22:35.274Z,87.24
2022-10-22T16:25:06.783Z,87.47
2022-10-22T16:27:38.019Z,87.57
2022-10-22T16:30:09.818Z,87.77
2022-10-22T16:32:40.807Z,87.72
2022-10-22T16:35:12.716Z,87.83
2022-10-22T16:37:43.972Z,88.03
2022-10-22T16:40:15.989Z,88.21
2022-10-22T16:42:46.865Z,88.33
2022-10-22T16:45:18.253Z,88.43
2022-10-22T16:47:49.426Z,88.42
2022-10-22T16:50:19.999Z,88.50
2022-10-22T16:52:51.461Z,88.48
2022-10-22T16:55:22.162Z,88.50
2022-10-22T16:57:55.770Z,88.53
2022-10-22T17:00:26.373Z,88.62
2022-10-22T17:02:57.775Z,88.63
2022-10-22T17:05:28.264Z,88.65
2022-10-22T17:07:59.502Z,88.59
2022-10-22T17:10:30.045Z,88.54
2022-10-22T17:13:00.773Z,88.46
2022-10-22T17:15:31.397Z,88.37
2022-10-22T17:18:04.151Z,88.33
2022-10-22T17:20:34.581Z,88.30
2022-10-22T17:23:05.512Z,88.21
2022-10-22T17:25:43.109Z,88.00
2022-10-22T17:28:14.002Z,88.07
2022-10-22T17:30:44.626Z,88.11
2022-10-22T17:33:15.457Z,88.24
2022-10-22T17:35:46.019Z,88.25
2022-10-22T17:38:16.935Z,88.15
2022-10-22T17:40:47.967Z,88.19
2022-10-22T17:43:18.610Z,88.37
2022-10-22T17:45:49.187Z,88.44
2022-10-22T17:48:19.750Z,88.57
2022-10-22T17:50:51.498Z,88.66
2022-10-22T17:53:23.469Z,88.70
2022-10-22T17:56:02.049Z,88.77
2022-10-22T17:58:33.016Z,88.83
2022-10-22T18:01:03.917Z,88.75
2022-10-22T18:03:35.094Z,88.83
2022-10-22T18:06:10.956Z,88.88
2022-10-22T18:08:41.702Z,88.87
2022-10-22T18:11:14.442Z,88.77
2022-10-22T18:13:45.004Z,88.69
2022-10-22T18:16:15.926Z,88.73
2022-10-22T18:18:48.104Z,88.72
2022-10-22T18:21:18.854Z,88.81
2022-10-22T18:23:49.644Z,88.79
2022-10-22T18:26:24.272Z,88.72
2022-10-22T18:28:57.624Z,88.47
2022-10-22T18:31:30.353Z,88.46
2022-10-22T18:34:01.547Z,88.51
2022-10-22T18:36:32.580Z,88.53
2022-10-22T18:39:05.128Z,88.60
2022-10-22T18:41:36.594Z,88.61
2022-10-22T18:44:08.410Z,88.48
2022-10-22T18:46:40.138Z,88.46
2022-10-22T18:49:18.164Z,88.55
2022-10-22T18:51:52.681Z,88.45
2022-10-22T18:54:24.634Z,88.42
2022-10-22T18:57:00.544Z,88.57
2022-10-22T18:59:31.786Z,88.57
2022-10-22T19:02:02.542Z,88.61
2022-10-22T19:04:36.966Z,88.63
2022-10-22T19:09:40.433Z,88.55
2022-10-22T19:12:15.034Z,88.49
2022-10-22T19:14:45.783Z,88.51
2022-10-22T19:17:16.245Z,88.49
2022-10-22T19:19:47.865Z,88.35
2022-10-22T19:22:18.557Z,88.43
2022-10-22T19:24:50.795Z,88.39
2022-10-22T19:27:21.759Z,88.39
2022-10-22T19:29:52.162Z,88.32
2022-10-22T19:32:23.222Z,88.38
2022-10-22T19:34:54.177Z,88.45
2022-10-22T19:37:25.000Z,88.36
2022-10-22T19:39:55.454Z,88.21
2022-10-22T19:42:26.402Z,88.24
2022-10-22T19:44:57.694Z,88.15
2022-10-22T19:47:29.246Z,88.12
2022-10-22T19:49:59.825Z,88.04
2022-10-22T19:52:30.215Z,87.85
2022-10-22T19:55:00.553Z,87.77
2022-10-22T19:57:31.279Z,87.66
2022-10-22T20:00:01.962Z,87.59
2022-10-22T20:02:32.390Z,87.57
2022-10-22T20:05:03.204Z,87.48
2022-10-22T20:07:33.954Z,87.52
2022-10-22T20:10:05.134Z,87.54
2022-10-22T20:12:35.811Z,87.52
2022-10-22T20:15:07.815Z,87.47
2022-10-22T20:17:38.303Z,87.47
2022-10-22T20:20:09.935Z,87.45
2022-10-22T20:22:42.948Z,87.40
2022-10-22T20:25:14.334Z,87.28
2022-10-22T20:27:45.094Z,87.21
2022-10-22T20:32:52.000Z,87.23
2022-10-22T20:35:22.382Z,87.31
2022-10-22T20:37:53.153Z,87.26
2022-10-22T20:40:26.057Z,87.09
2022-10-22T20:42:56.667Z,87.06
2022-10-22T20:45:28.083Z,86.99
2022-10-22T20:48:02.704Z,87.00
2022-10-22T20:50:34.604Z,87.00
2022-10-22T20:53:04.953Z,86.91
2022-10-22T20:55:36.190Z,86.87
2022-10-22T20:58:06.545Z,86.90
2022-10-22T21:00:39.363Z,86.97
2022-10-22T21:03:10.010Z,87.07
2022-10-22T21:05:40.700Z,87.00
2022-10-22T21:08:17.193Z,86.85
2022-10-22T21:10:49.139Z,86.85
2022-10-22T21:13:19.791Z,86.76
2022-10-22T21:15:50.244Z,86.86
2022-10-22T21:18:21.091Z,86.92
2022-10-22T21:20:51.449Z,86.91
2022-10-22T21:23:21.819Z,87.05
2022-10-22T21:25:58.330Z,87.00
2022-10-22T21:31:04.641Z,87.18
2022-10-22T21:33:37.703Z,87.17
2022-10-22T21:36:10.006Z,86.97
2022-10-22T21:38:40.796Z,86.76
2022-10-22T21:41:12.844Z,86.72
2022-10-22T21:43:45.604Z,86.64
2022-10-22T21:46:19.726Z,86.64
2022-10-22T21:48:53.546Z,86.53
2022-10-22T21:51:26.077Z,86.67
2022-10-22T21:53:56.755Z,86.59
2022-10-22T21:56:29.126Z,86.65
2022-10-22T21:58:59.568Z,86.62
2022-10-22T22:01:30.140Z,86.75
2022-10-22T22:04:00.628Z,86.64
2022-10-22T22:06:33.822Z,86.76
2022-10-22T22:09:06.396Z,86.69
2022-10-22T22:11:37.300Z,86.80
2022-10-22T22:14:07.952Z,86.60
2022-10-22T22:16:38.294Z,86.60
2022-10-22T22:19:10.471Z,86.40
2022-10-22T22:21:41.913Z,86.31
2022-10-22T22:24:14.408Z,86.34
2022-10-22T22:26:44.812Z,86.35
2022-10-22T22:29:15.153Z,86.35
2022-10-22T22:31:45.963Z,86.33
2022-10-22T22:34:17.790Z,86.32
2022-10-22T22:36:49.800Z,86.40
2022-10-22T22:39:23.466Z,86.32
2022-10-22T22:41:54.306Z,86.22
2022-10-22T22:44:25.002Z,85.88
2022-10-22T22:46:55.344Z,85.75
2022-10-22T22:49:25.697Z,85.57
2022-10-22T22:51:56.898Z,85.61
2022-10-22T22:54:27.931Z,86.18
2022-10-22T22:56:58.804Z,86.42
2022-10-22T22:59:29.490Z,86.53
2022-10-22T23:02:00.170Z,86.82
2022-10-22T23:04:30.822Z,86.85
2022-10-22T23:07:01.645Z,86.96
2022-10-22T23:09:32.020Z,87.13
2022-10-22T23:12:02.466Z,87.28
2022-10-22T23:14:32.851Z,87.48
2022-10-22T23:17:03.804Z,87.43
2022-10-22T23:19:34.403Z,87.64
2022-10-22T23:22:04.821Z,87.70
2022-10-22T23:24:35.150Z,87.72
2022-10-22T23:27:06.690Z,87.77
2022-10-22T23:29:37.366Z,87.75
2022-10-22T23:32:14.246Z,87.85
2022-10-22T23:34:44.599Z,88.01
2022-10-22T23:37:15.379Z,88.03
2022-10-22T23:39:45.845Z,87.98
2022-10-22T23:42:16.462Z,87.85
2022-10-22T23:44:46.800Z,88.03
2022-10-22T23:47:17.174Z,87.95
2022-10-22T23:49:47.487Z,87.90
2022-10-22T23:52:17.952Z,87.80
2022-10-22T23:54:49.272Z,87.72
2022-10-22T23:57:19.677Z,87.68
2022-10-22T23:59:50.007Z,87.62
